createdAt,value
2022-11-02T00:01:03.541Z,9.33
2022-11-02T00:04:10.342Z,10.90
2022-11-02T00:07:15.455Z,11.55
2022-11-02T00:10:22.348Z,9.93
2022-11-02T00:13:28.522Z,10.15
2022-11-02T00:16:35.626Z,9.53
2022-11-02T00:19:35.055Z,10.68
2022-11-02T00:22:40.787Z,10.90
2022-11-02T00:25:47.153Z,10.10
2022-11-02T00:28:53.740Z,10.72
2022-11-02T00:32:00.138Z,8.58
2022-11-02T00:35:06.171Z,9.15
2022-11-02T00:38:12.379Z,10.20
2022-11-02T00:41:19.292Z,11.33
2022-11-02T00:44:24.678Z,10.78
2022-11-02T00:47:30.480Z,10.20
2022-11-02T00:50:35.910Z,10.18
2022-11-02T00:53:42.176Z,9.55
2022-11-02T00:56:47.902Z,9.63
2022-11-02T00:59:54.475Z,9.88
2022-11-02T01:03:01.334Z,10.18
2022-11-02T01:06:06.416Z,9.43
2022-11-02T01:09:05.699Z,9.23
2022-11-02T01:12:12.423Z,9.63
2022-11-02T01:15:18.342Z,9.60
2022-11-02T01:18:25.322Z,10.40
2022-11-02T01:21:31.502Z,11.33
2022-11-02T01:24:38.609Z,11.10
2022-11-02T01:27:43.874Z,10.85
2022-11-02T01:30:50.005Z,10.55
2022-11-02T01:34:00.839Z,10.98
2022-11-02T01:37:06.092Z,10.23
2022-11-02T01:40:12.268Z,10.75
2022-11-02T01:43:42.274Z,10.23
2022-11-02T01:46:59.330Z,9.43
2022-11-02T01:50:12.499Z,9.75
2022-11-02T01:53:12.931Z,9.43
2022-11-02T01:56:19.133Z,9.43
2022-11-02T01:59:31.733Z,9.05
2022-11-02T02:02:38.997Z,10.08
2022-11-02T02:05:44.181Z,9.10
2022-11-02T02:08:52.840Z,9.50
2022-11-02T02:12:00.239Z,9.08
2022-11-02T02:15:07.173Z,9.98
2022-11-02T02:18:21.076Z,10.08
2022-11-02T02:21:58.147Z,9.90
2022-11-02T02:25:43.468Z,9.95
2022-11-02T02:29:03.305Z,9.95
2022-11-02T02:32:17.314Z,9.70
2022-11-02T02:36:04.085Z,9.20
2022-11-02T02:39:25.680Z,10.18
2022-11-02T02:42:35.563Z,11.28
2022-11-02T02:45:56.354Z,10.13
2022-11-02T02:49:02.134Z,8.83
2022-11-02T02:52:08.356Z,11.22
2022-11-02T02:55:14.532Z,11.45
2022-11-02T02:58:22.072Z,11.15
2022-11-02T03:01:29.350Z,10.20
2022-11-02T03:04:28.293Z,10.60
2022-11-02T03:07:44.690Z,10.48
2022-11-02T03:10:54.285Z,9.93
2022-11-02T03:14:12.133Z,8.68
2022-11-02T03:17:35.082Z,8.43
2022-11-02T03:21:00.329Z,8.70
2022-11-02T03:24:22.897Z,8.58
2022-11-02T03:27:47.186Z,9.50
2022-11-02T03:31:13.626Z,8.10
2022-11-02T03:34:45.334Z,7.80
2022-11-02T03:37:56.965Z,10.98
2022-11-02T03:41:04.730Z,12.05
2022-11-02T03:44:25.215Z,10.82
2022-11-02T03:47:33.225Z,9.60
2022-11-02T03:50:42.472Z,11.12
2022-11-02T03:54:20.785Z,12.23
2022-11-02T03:57:31.173Z,12.20
2022-11-02T04:00:38.874Z,12.20
2022-11-02T04:03:37.919Z,12.20
2022-11-02T04:06:38.402Z,12.10
2022-11-02T04:09:43.993Z,10.88
2022-11-02T04:13:09.023Z,9.83
2022-11-02T04:16:14.715Z,10.23
2022-11-02T04:19:37.525Z,9.95
2022-11-02T04:23:01.424Z,10.18
2022-11-02T04:26:10.555Z,10.72
2022-11-02T04:32:25.149Z,9.58
2022-11-02T04:35:31.611Z,9.98
2022-11-02T04:38:50.288Z,10.38
2022-11-02T04:42:00.678Z,10.08
2022-11-02T04:45:10.737Z,9.20
2022-11-02T04:48:20.977Z,9.58
2022-11-02T04:51:29.446Z,10.93
2022-11-02T04:54:35.667Z,10.18
2022-11-02T05:00:47.780Z,13.53
2022-11-02T05:03:55.557Z,10.25
2022-11-02T05:07:03.353Z,10.80
2022-11-02T05:10:11.505Z,10.65
2022-11-02T05:13:17.943Z,9.30
2022-11-02T05:16:26.644Z,9.45
2022-11-02T05:19:26.372Z,10.58
2022-11-02T05:22:24.992Z,9.93
2022-11-02T05:25:29.711Z,10.50
2022-11-02T05:28:35.600Z,11.25
2022-11-02T05:31:42.444Z,8.83
2022-11-02T05:34:48.144Z,9.78
2022-11-02T05:37:54.912Z,9.95
2022-11-02T05:41:11.685Z,11.07
2022-11-02T05:44:17.739Z,9.78
2022-11-02T05:47:23.877Z,8.10
2022-11-02T05:50:30.832Z,8.48
2022-11-02T05:53:29.865Z,9.58
2022-11-02T05:56:35.802Z,9.03
2022-11-02T05:59:43.876Z,8.60
2022-11-02T06:02:49.622Z,9.10
2022-11-02T06:05:55.866Z,8.70
2022-11-02T06:09:06.925Z,8.43
2022-11-02T06:12:11.438Z,9.63
2022-11-02T06:15:18.991Z,9.28
2022-11-02T06:18:25.499Z,8.25
2022-11-02T06:21:32.206Z,7.85
2022-11-02T06:24:39.577Z,9.25
2022-11-02T06:27:46.086Z,8.68
2022-11-02T06:30:52.631Z,7.17
2022-11-02T06:33:58.954Z,7.67
2022-11-02T06:37:05.538Z,8.60
2022-11-02T06:40:11.744Z,8.78
2022-11-02T06:43:19.395Z,8.48
2022-11-02T06:46:25.266Z,9.10
2022-11-02T06:49:31.463Z,8.18
2022-11-02T06:52:30.458Z,8.70
2022-11-02T06:55:16.851Z,8.75
2022-11-02T06:58:10.305Z,9.08
2022-11-02T07:01:02.936Z,9.33
2022-11-02T07:04:02.420Z,9.00
2022-11-02T07:07:08.415Z,8.23
2022-11-02T07:10:15.975Z,10.08
2022-11-02T07:13:22.259Z,9.95
2022-11-02T07:16:29.854Z,9.40
2022-11-02T07:19:36.272Z,8.00
2022-11-02T07:22:43.108Z,9.40
2022-11-02T07:25:48.330Z,10.08
2022-11-02T07:28:55.276Z,9.58
2022-11-02T07:32:04.319Z,10.10
2022-11-02T07:35:04.451Z,9.93
2022-11-02T07:41:17.383Z,9.08
2022-11-02T07:44:22.909Z,11.28
2022-11-02T07:47:28.719Z,9.83
2022-11-02T07:50:36.794Z,9.43
2022-11-02T07:53:42.703Z,9.95
2022-11-02T07:56:48.694Z,9.88
2022-11-02T07:59:55.721Z,9.45
2022-11-02T08:03:04.817Z,9.68
2022-11-02T08:06:10.860Z,9.48
2022-11-02T08:09:16.997Z,10.05
2022-11-02T08:12:22.762Z,8.78
2022-11-02T08:15:27.841Z,8.48
2022-11-02T08:18:35.653Z,9.83
2022-11-02T08:21:40.853Z,7.40
2022-11-02T08:24:46.112Z,8.10
2022-11-02T08:27:52.126Z,7.08
2022-11-02T08:30:57.463Z,8.00
2022-11-02T08:34:03.403Z,7.53
2022-11-02T08:37:10.073Z,7.15
2022-11-02T08:40:16.219Z,7.62
2022-11-02T08:43:23.944Z,6.70
2022-11-02T08:46:31.320Z,7.33
2022-11-02T08:49:37.214Z,7.05
2022-11-02T08:52:42.733Z,7.00
2022-11-02T08:55:49.667Z,6.60
2022-11-02T08:58:59.287Z,6.30
2022-11-02T09:02:05.312Z,6.28
2022-11-02T09:05:12.292Z,6.47
2022-11-02T09:11:31.677Z,6.30
2022-11-02T09:14:37.615Z,6.20
2022-11-02T09:17:44.124Z,5.83
2022-11-02T09:20:50.215Z,5.72
2022-11-02T09:23:56.742Z,5.60
2022-11-02T09:27:03.337Z,5.35
2022-11-02T09:30:10.033Z,4.60
2022-11-02T09:33:20.097Z,4.75
2022-11-02T09:36:26.675Z,4.75
2022-11-02T09:39:33.472Z,4.92
2022-11-02T09:43:09.708Z,4.12
2022-11-02T09:46:33.903Z,4.60
2022-11-02T09:49:41.698Z,4.65
2022-11-02T09:52:50.838Z,4.28
2022-11-02T09:56:01.738Z,4.80
2022-11-02T09:59:16.499Z,4.05
2022-11-02T10:02:52.384Z,4.30
2022-11-02T10:06:07.313Z,4.35
2022-11-02T10:09:34.909Z,4.17
2022-11-02T10:13:20.358Z,3.95
2022-11-02T10:16:35.778Z,4.58
2022-11-02T10:19:41.941Z,4.40
2022-11-02T10:22:51.490Z,4.22
2022-11-02T10:25:58.265Z,4.35
2022-11-02T10:29:05.065Z,4.15
2022-11-02T10:32:04.081Z,4.33
2022-11-02T10:34:59.333Z,4.58
2022-11-02T10:38:14.763Z,4.17
2022-11-02T10:41:47.540Z,5.40
2022-11-02T10:45:23.614Z,4.33
2022-11-02T10:48:53.100Z,4.17
2022-11-02T10:51:59.108Z,3.37
2022-11-02T10:55:05.486Z,3.50
2022-11-02T10:58:06.782Z,3.62
2022-11-02T11:01:03.002Z,3.58
2022-11-02T11:04:17.970Z,3.33
2022-11-02T11:07:38.473Z,4.85
2022-11-02T11:10:52.692Z,3.95
2022-11-02T11:20:17.439Z,4.00
2022-11-02T11:23:39.364Z,3.65
2022-11-02T11:26:46.411Z,4.47
2022-11-02T11:29:58.059Z,4.28
2022-11-02T11:33:04.521Z,4.05
2022-11-02T11:36:09.593Z,3.70
2022-11-02T11:39:20.935Z,3.47
2022-11-02T11:42:34.619Z,3.77
2022-11-02T11:46:08.019Z,3.37
2022-11-02T11:49:14.552Z,3.15
2022-11-02T11:52:19.937Z,3.15
2022-11-02T11:55:40.493Z,3.10
2022-11-02T11:58:50.599Z,3.20
2022-11-02T12:01:57.037Z,3.40
2022-11-02T12:05:03.857Z,3.60
2022-11-02T12:08:25.972Z,3.55
2022-11-02T12:11:43.503Z,3.60
2022-11-02T12:15:07.028Z,3.60
2022-11-02T12:18:29.847Z,3.65
2022-11-02T12:21:42.823Z,3.22
2022-11-02T12:25:07.702Z,3.35
2022-11-02T12:28:36.451Z,5.08
2022-11-02T12:31:58.112Z,5.42
2022-11-02T12:35:34.735Z,4.27
2022-11-02T12:39:09.522Z,4.35
2022-11-02T12:42:43.728Z,4.15
2022-11-02T12:46:28.079Z,4.42
2022-11-02T12:49:52.977Z,4.92
2022-11-02T12:53:15.030Z,4.10
2022-11-02T12:56:25.210Z,4.25
2022-11-02T12:59:45.295Z,5.28
2022-11-02T13:03:12.100Z,4.53
2022-11-02T13:06:22.409Z,5.03
2022-11-02T13:09:39.099Z,4.25
2022-11-02T13:12:46.772Z,4.78
2022-11-02T13:15:53.409Z,4.58
2022-11-02T13:19:07.406Z,4.50
2022-11-02T13:22:05.994Z,4.37
2022-11-02T13:24:54.848Z,5.17
2022-11-02T13:27:55.789Z,4.92
2022-11-02T13:33:36.600Z,5.72
2022-11-02T13:36:29.899Z,8.18
2022-11-02T13:39:55.680Z,7.08
2022-11-02T13:43:22.282Z,8.50
2022-11-02T13:46:38.272Z,9.00
2022-11-02T13:49:58.277Z,7.80
2022-11-02T13:56:24.505Z,9.70
2022-11-02T13:59:49.064Z,13.25
2022-11-02T14:02:56.225Z,17.42
2022-11-02T14:06:11.889Z,16.17
2022-11-02T14:09:19.429Z,9.90
2022-11-02T14:12:38.619Z,8.05
2022-11-02T14:15:51.645Z,7.67
2022-11-02T14:18:58.387Z,8.05
2022-11-02T14:22:19.806Z,8.90
2022-11-02T14:25:30.540Z,9.18
2022-11-02T14:28:49.833Z,8.40
2022-11-02T14:31:56.524Z,8.33
2022-11-02T14:35:21.683Z,8.33
2022-11-02T14:38:44.528Z,8.53
2022-11-02T14:42:03.869Z,8.60
2022-11-02T14:45:35.751Z,7.78
2022-11-02T14:48:40.387Z,7.62
2022-11-02T14:51:50.759Z,7.72
2022-11-02T14:55:36.086Z,7.00
2022-11-02T14:58:48.681Z,8.88
2022-11-02T15:02:05.752Z,9.65
2022-11-02T15:05:09.054Z,7.55
2022-11-02T15:08:35.348Z,7.35
2022-11-02T15:12:03.402Z,7.30
2022-11-02T15:18:48.912Z,7.65
2022-11-02T15:21:54.672Z,8.00
2022-11-02T15:25:00.652Z,8.50
2022-11-02T15:28:09.358Z,7.65
2022-11-02T15:31:26.063Z,7.42
2022-11-02T15:34:31.547Z,7.45
2022-11-02T15:38:03.452Z,7.45
2022-11-02T15:41:06.287Z,7.60
2022-11-02T15:44:38.868Z,8.53
2022-11-02T15:48:26.111Z,7.28
2022-11-02T15:51:39.036Z,7.87
2022-11-02T15:55:01.868Z,7.00
2022-11-02T15:58:44.992Z,6.85
2022-11-02T16:01:50.664Z,6.03
2022-11-02T16:05:01.446Z,6.85
2022-11-02T16:11:26.844Z,9.70
2022-11-02T16:14:33.064Z,13.00
2022-11-02T16:17:44.096Z,13.80
2022-11-02T16:20:50.772Z,16.67
2022-11-02T16:23:58.617Z,19.73
2022-11-02T16:27:06.091Z,21.80
2022-11-02T16:30:12.560Z,23.05
2022-11-02T16:33:19.273Z,22.32
2022-11-02T16:36:21.371Z,23.32
2022-11-02T16:39:44.016Z,22.65
2022-11-02T16:42:48.497Z,25.05
2022-11-02T16:45:54.145Z,25.92
2022-11-02T16:49:20.668Z,24.85
2022-11-02T16:52:40.860Z,30.40
2022-11-02T16:59:06.656Z,27.02
2022-11-02T17:02:14.944Z,25.57
2022-11-02T17:05:37.219Z,22.73
2022-11-02T17:08:51.519Z,22.20
2022-11-02T17:11:57.693Z,21.90
2022-11-02T17:15:04.193Z,19.80
2022-11-02T17:18:39.246Z,19.35
2022-11-02T17:21:39.217Z,20.05
2022-11-02T17:24:46.792Z,18.42
2022-11-02T17:27:52.533Z,17.77
2022-11-02T17:30:58.866Z,18.35
2022-11-02T17:34:04.657Z,19.07
2022-11-02T17:37:10.253Z,18.60
2022-11-02T17:40:17.269Z,16.25
2022-11-02T17:43:23.652Z,15.15
2022-11-02T17:46:29.431Z,15.32
2022-11-02T17:49:35.000Z,15.43
2022-11-02T17:52:42.676Z,14.38
2022-11-02T17:55:49.558Z,13.90
2022-11-02T17:58:56.381Z,13.43
2022-11-02T18:02:03.857Z,14.80
2022-11-02T18:05:08.993Z,14.87
2022-11-02T18:08:17.648Z,13.85
2022-11-02T18:11:22.096Z,13.93
2022-11-02T18:14:06.536Z,13.00
2022-11-02T18:17:00.469Z,13.45
2022-11-02T18:19:46.572Z,12.63
2022-11-02T18:22:38.756Z,12.00
2022-11-02T18:25:37.060Z,11.00
2022-11-02T18:28:43.037Z,10.32
2022-11-02T18:31:48.915Z,11.88
2022-11-02T18:34:53.995Z,13.32
2022-11-02T18:37:59.592Z,13.32
2022-11-02T18:41:05.231Z,13.18
2022-11-02T18:44:15.610Z,13.95
2022-11-02T18:47:21.322Z,14.18
2022-11-02T18:50:28.030Z,17.02
2022-11-02T18:53:34.265Z,15.18
2022-11-02T18:56:40.079Z,13.93
2022-11-02T18:59:39.297Z,15.65
2022-11-02T19:02:45.733Z,16.80
2022-11-02T19:06:09.159Z,14.18
2022-11-02T19:09:26.751Z,15.48
2022-11-02T19:12:34.576Z,15.28
2022-11-02T19:15:42.715Z,17.17
2022-11-02T19:18:41.731Z,16.40
2022-11-02T19:21:27.687Z,17.45
2022-11-02T19:24:20.151Z,18.77
2022-11-02T19:27:15.317Z,19.20
2022-11-02T19:30:22.575Z,17.48
2022-11-02T19:33:27.388Z,20.27
2022-11-02T19:36:33.230Z,16.62
2022-11-02T19:39:38.181Z,20.45
2022-11-02T19:42:44.124Z,19.42
2022-11-02T19:45:50.310Z,20.30
2022-11-02T19:48:54.786Z,22.75
2022-11-02T19:52:00.513Z,23.18
2022-11-02T19:55:06.601Z,25.48
2022-11-02T19:58:13.181Z,29.65
2022-11-02T20:01:25.074Z,25.62
2022-11-02T20:04:30.527Z,26.52
2022-11-02T20:07:36.636Z,28.05
2022-11-02T20:10:42.713Z,30.52
2022-11-02T20:13:51.088Z,32.13
2022-11-02T20:17:17.838Z,33.42
2022-11-02T20:20:06.020Z,34.45
2022-11-02T20:23:12.853Z,36.73
2022-11-02T20:26:21.140Z,33.28
2022-11-02T20:29:26.699Z,39.40
2022-11-02T20:32:32.455Z,40.40
2022-11-02T20:35:37.422Z,38.30
2022-11-02T20:38:44.008Z,49.05
2022-11-02T20:41:50.847Z,47.83
2022-11-02T20:44:56.525Z,54.30
2022-11-02T20:48:03.877Z,48.52
2022-11-02T20:51:10.524Z,50.55
2022-11-02T20:54:15.562Z,44.90
2022-11-02T20:57:21.718Z,41.95
2022-11-02T21:00:28.993Z,45.83
2022-11-02T21:03:35.155Z,43.78
2022-11-02T21:06:40.843Z,47.13
2022-11-02T21:09:47.134Z,41.77
2022-11-02T21:13:10.874Z,42.48
2022-11-02T21:16:17.963Z,45.28
2022-11-02T21:19:23.986Z,55.45
2022-11-02T21:22:29.713Z,55.90
2022-11-02T21:25:34.954Z,48.40
2022-11-02T21:28:45.633Z,47.98
2022-11-02T21:31:52.115Z,49.55
2022-11-02T21:34:57.160Z,47.58
2022-11-02T21:38:06.958Z,44.13
2022-11-02T21:41:19.221Z,49.80
2022-11-02T21:44:25.465Z,44.85
2022-11-02T21:47:32.373Z,50.38
2022-11-02T21:50:38.127Z,48.48
2022-11-02T21:53:44.544Z,45.63
2022-11-02T21:56:53.750Z,46.95
2022-11-02T22:00:00.247Z,45.08
2022-11-02T22:03:08.611Z,44.90
2022-11-02T22:06:14.105Z,38.30
2022-11-02T22:09:20.791Z,41.88
2022-11-02T22:12:44.234Z,44.58
2022-11-02T22:15:50.670Z,44.77
2022-11-02T22:18:56.243Z,39.38
2022-11-02T22:22:02.748Z,45.05
2022-11-02T22:25:09.427Z,45.95
2022-11-02T22:28:16.231Z,46.13
2022-11-02T22:31:23.970Z,46.20
2022-11-02T22:34:29.864Z,45.40
2022-11-02T22:37:53.375Z,46.75
2022-11-02T22:40:59.853Z,45.80
2022-11-02T22:44:09.763Z,48.95
2022-11-02T22:47:16.496Z,50.75
2022-11-02T22:50:26.716Z,48.73
2022-11-02T22:53:30.983Z,43.35
2022-11-02T22:56:38.662Z,50.30
2022-11-02T22:59:44.367Z,46.63
2022-11-02T23:02:50.458Z,46.55
2022-11-02T23:05:58.299Z,47.75
2022-11-02T23:09:05.413Z,46.53
2022-11-02T23:12:10.206Z,49.50
2022-11-02T23:15:16.145Z,48.20
2022-11-02T23:18:21.989Z,50.05
2022-11-02T23:21:28.367Z,50.30
2022-11-02T23:24:52.097Z,50.83
2022-11-02T23:28:26.986Z,49.03
2022-11-02T23:31:51.274Z,51.55
2022-11-02T23:35:14.949Z,53.65
2022-11-02T23:38:21.001Z,53.13
2022-11-02T23:41:26.541Z,56.88
2022-11-02T23:44:32.012Z,56.90
2022-11-02T23:47:55.697Z,60.80
2022-11-02T23:51:20.855Z,64.77
2022-11-02T23:54:43.693Z,64.42
2022-11-02T23:57:49.444Z,64.67
